Time;durP1;ratioP1;P1;durP2;ratioP2;P2;SDS_P1;SDS_P2;PMS_P1;PMS_P2;Temp;Humidity;BMP_temperature;BMP_pressure;BME280_temperature;BME280_humidity;BME280_pressure;Samples;Min_cycle;Max_cycle;Signal;HPM_P1;HPM_P2
2021/08/24 00:00:51;;;;;;;7.53;4.63;;;14.70;90.60;;;;;;5113141;28;20383;-77
2021/08/24 00:03:18;;;;;;;5.15;4.18;;;14.60;90.60;;;;;;5113310;28;20059;-75
2021/08/24 00:05:46;;;;;;;6.72;4.80;;;14.60;90.70;;;;;;5112644;28;20028;-76
2021/08/24 00:08:13;;;;;;;8.70;4.38;;;14.60;90.70;;;;;;5112031;28;20016;-77
2021/08/24 00:11:01;;;;;;;6.25;4.65;;;14.60;90.70;;;;;;5094799;28;20024;-77
2021/08/24 00:13:28;;;;;;;11.68;4.00;;;14.60;90.80;;;;;;5111869;28;20055;-78
2021/08/24 00:15:54;;;;;;;4.78;4.28;;;14.50;90.70;;;;;;5111613;28;20023;-77
2021/08/24 00:18:20;;;;;;;5.60;4.03;;;14.50;90.80;;;;;;5111789;28;20036;-77
2021/08/24 00:20:48;;;;;;;6.32;4.32;;;14.50;90.80;;;;;;5111458;28;20024;-76
2021/08/24 00:23:17;;;;;;;6.90;4.15;;;14.50;90.90;;;;;;5111827;28;20035;-79
2021/08/24 00:25:43;;;;;;;7.35;4.20;;;14.50;90.90;;;;;;5112588;28;20113;-77
2021/08/24 00:28:09;;;;;;;8.80;4.07;;;14.40;90.90;;;;;;5111141;28;20047;-80
2021/08/24 00:30:38;;;;;;;4.90;4.38;;;14.40;90.90;;;;;;5093529;28;20031;-78
2021/08/24 00:33:04;;;;;;;5.18;4.68;;;14.30;91.00;;;;;;5094390;28;20028;-78
2021/08/24 00:35:30;;;;;;;6.68;4.25;;;14.30;91.00;;;;;;5109810;28;20032;-76
2021/08/24 00:37:55;;;;;;;6.15;4.25;;;14.30;91.10;;;;;;5110454;28;20095;-77
2021/08/24 00:40:23;;;;;;;8.70;4.72;;;14.30;91.10;;;;;;5110639;28;20379;-77
2021/08/24 00:42:49;;;;;;;4.43;4.00;;;14.20;91.10;;;;;;5094399;28;20157;-77
2021/08/24 00:45:19;;;;;;;6.20;4.18;;;14.30;91.10;;;;;;5112438;28;20480;-78
2021/08/24 00:47:47;;;;;;;6.35;4.50;;;14.30;91.10;;;;;;5110855;28;20104;-77
2021/08/24 00:50:31;;;;;;;6.75;3.95;;;14.30;91.10;;;;;;5111197;28;20035;-77
2021/08/24 00:53:07;;;;;;;6.22;3.97;;;14.20;91.10;;;;;;5111458;28;20016;-76
2021/08/24 00:55:34;;;;;;;4.63;3.75;;;14.20;91.20;;;;;;5113756;28;20030;-77
2021/08/24 00:58:04;;;;;;;5.40;4.03;;;14.20;91.20;;;;;;5115663;28;20096;-76
2021/08/24 01:00:31;;;;;;;6.95;4.28;;;14.20;91.20;;;;;;5115136;28;20027;-80
2021/08/24 01:03:07;;;;;;;5.32;4.05;;;14.10;91.20;;;;;;5116258;28;20036;-77
2021/08/24 01:05:34;;;;;;;6.03;4.38;;;14.10;91.30;;;;;;5108246;28;20042;-83
2021/08/24 01:08:33;;;;;;;5.90;3.97;;;14.10;91.30;;;;;;5107578;28;20500;-78
2021/08/24 01:11:44;;;;;;;4.60;3.65;;;14.10;91.40;;;;;;5108419;28;20049;-77
2021/08/24 01:14:16;;;;;;;4.95;3.90;;;14.10;91.30;;;;;;5071341;28;20055;-76
2021/08/24 01:17:03;;;;;;;8.40;3.70;;;14.00;91.30;;;;;;5105269;28;20490;-77
2021/08/24 01:19:58;;;;;;;6.97;3.90;;;14.00;91.40;;;;;;5105503;28;20060;-77
2021/08/24 01:23:03;;;;;;;5.72;3.75;;;14.00;91.40;;;;;;5106877;28;20034;-78
2021/08/24 01:25:41;;;;;;;5.45;3.78;;;14.00;91.40;;;;;;5095587;28;20040;-77
2021/08/24 01:28:17;;;;;;;5.15;3.80;;;14.00;91.40;;;;;;5115371;28;20026;-77
2021/08/24 01:31:11;;;;;;;5.50;3.63;;;14.00;91.40;;;;;;5106490;28;20030;-77
2021/08/24 01:33:54;;;;;;;4.22;3.60;;;14.00;91.40;;;;;;5097713;28;20107;-78
2021/08/24 01:37:03;;;;;;;4.53;3.33;;;13.90;91.40;;;;;;5114525;28;20108;-76
2021/08/24 01:39:42;;;;;;;6.35;4.15;;;13.90;91.50;;;;;;5097909;28;20034;-76
2021/08/24 01:42:21;;;;;;;5.07;3.15;;;13.80;91.50;;;;;;5105094;28;20115;-75
2021/08/24 01:44:50;;;;;;;5.25;3.40;;;13.70;91.60;;;;;;5106163;28;20437;-77
2021/08/24 01:47:19;;;;;;;5.18;3.92;;;13.80;91.60;;;;;;5105459;28;20068;-78
2021/08/24 01:49:56;;;;;;;3.47;3.13;;;13.70;91.70;;;;;;5097426;28;20055;-76
2021/08/24 01:52:28;;;;;;;5.97;3.28;;;13.70;91.70;;;;;;5105291;28;20054;-76
2021/08/24 01:54:59;;;;;;;7.70;4.07;;;13.70;91.80;;;;;;5104383;28;20024;-79
2021/08/24 01:57:38;;;;;;;6.03;3.70;;;13.60;91.80;;;;;;5100569;28;20027;-79
2021/08/24 02:00:11;;;;;;;4.47;3.42;;;13.60;91.80;;;;;;5110050;28;20031;-77
2021/08/24 02:02:50;;;;;;;7.82;4.00;;;13.50;91.90;;;;;;5098683;28;20020;-84
2021/08/24 02:05:37;;;;;;;4.90;3.78;;;13.50;91.90;;;;;;5100104;28;20090;-78
2021/08/24 02:08:12;;;;;;;5.95;4.35;;;13.50;92.00;;;;;;5103550;28;20020;-76
2021/08/24 02:10:40;;;;;;;4.75;3.70;;;13.50;92.10;;;;;;5106551;28;20034;-75
2021/08/24 02:13:06;;;;;;;8.25;4.35;;;13.50;92.10;;;;;;5109379;28;20047;-78
2021/08/24 02:15:39;;;;;;;6.97;3.95;;;13.40;92.10;;;;;;5094377;28;20020;-75
2021/08/24 02:18:06;;;;;;;;;;;13.40;92.20;;;;;;5107270;28;20031;-85
2021/08/24 02:20:40;;;;;;;6.85;4.03;;;13.40;92.20;;;;;;5116638;28;19910;-78
2021/08/24 02:23:10;;;;;;;6.55;4.55;;;13.30;92.30;;;;;;5124174;28;20085;-75
2021/08/24 02:25:39;;;;;;;8.63;4.43;;;13.30;92.40;;;;;;5124654;28;20028;-75
2021/08/24 02:28:23;;;;;;;6.68;3.92;;;13.30;92.60;;;;;;5122365;28;20026;-76
2021/08/24 02:30:57;;;;;;;7.30;3.58;;;13.30;92.50;;;;;;5114320;28;20020;-78
2021/08/24 02:33:29;;;;;;;5.90;3.92;;;13.30;92.50;;;;;;5115720;28;20024;-77
2021/08/24 02:36:00;;;;;;;6.80;3.87;;;13.30;92.50;;;;;;5113805;28;20036;-76
2021/08/24 02:38:29;;;;;;;5.00;3.40;;;13.20;92.50;;;;;;5113796;28;20371;-76
2021/08/24 02:41:06;;;;;;;5.15;4.30;;;13.20;92.50;;;;;;5114413;28;20031;-77
2021/08/24 02:43:44;;;;;;;5.03;3.92;;;13.20;92.60;;;;;;5113511;28;20044;-76
2021/08/24 02:46:16;;;;;;;5.78;4.40;;;13.30;92.60;;;;;;5113237;28;20039;-77
2021/08/24 02:48:47;;;;;;;4.53;4.13;;;13.30;92.70;;;;;;5113640;28;20120;-76
2021/08/24 02:51:15;;;;;;;7.43;3.95;;;13.20;92.70;;;;;;5113295;28;20019;-77
2021/08/24 02:53:55;;;;;;;7.90;4.50;;;13.20;92.70;;;;;;5113517;28;20069;-77
2021/08/24 02:56:20;;;;;;;8.60;4.53;;;13.20;92.70;;;;;;5115928;28;20019;-77
2021/08/24 02:58:46;;;;;;;8.45;4.72;;;13.20;92.80;;;;;;5113124;28;20031;-81
2021/08/24 03:01:12;;;;;;;6.10;5.00;;;13.20;92.80;;;;;;5079119;28;20030;-77
2021/08/24 03:03:38;;;;;;;5.90;4.57;;;13.20;92.90;;;;;;5079484;28;20058;-77
2021/08/24 03:06:03;;;;;;;4.78;4.28;;;13.10;92.90;;;;;;5112926;28;20471;-77
2021/08/24 03:08:29;;;;;;;6.70;4.55;;;13.10;92.90;;;;;;5096126;28;20122;-76
2021/08/24 03:10:55;;;;;;;6.00;4.72;;;13.20;93.00;;;;;;5113590;28;20478;-77
2021/08/24 03:13:39;;;;;;;5.68;5.03;;;13.20;93.00;;;;;;5114505;27;20050;-78
2021/08/24 03:16:26;;;;;;;7.25;5.32;;;13.30;93.00;;;;;;5113773;28;20024;-77
2021/08/24 03:18:56;;;;;;;7.07;5.05;;;13.20;93.00;;;;;;5114287;28;20061;-78
2021/08/24 03:21:26;;;;;;;7.10;5.22;;;13.20;93.00;;;;;;5113906;28;20028;-76
2021/08/24 03:23:53;;;;;;;7.18;5.60;;;13.20;93.00;;;;;;5112671;28;20032;-79
2021/08/24 03:26:24;;;;;;;7.20;5.43;;;13.20;93.00;;;;;;5113744;28;20027;-77
2021/08/24 03:28:49;;;;;;;7.10;5.57;;;13.10;93.30;;;;;;5112850;28;20118;-77
2021/08/24 03:31:17;;;;;;;8.10;5.55;;;13.00;93.20;;;;;;5113036;28;20070;-77
2021/08/24 03:33:43;;;;;;;6.10;5.35;;;13.00;93.30;;;;;;5113006;28;20039;-77
2021/08/24 03:36:09;;;;;;;7.43;5.47;;;12.90;93.30;;;;;;5096057;28;20384;-76
2021/08/24 03:38:34;;;;;;;7.35;5.57;;;12.90;93.30;;;;;;5112755;28;20031;-77
2021/08/24 03:41:05;;;;;;;8.77;5.25;;;12.90;93.40;;;;;;5113354;28;20034;-75
2021/08/24 03:43:30;;;;;;;8.10;6.05;;;12.90;93.40;;;;;;5112758;28;20031;-77
2021/08/24 03:45:56;;;;;;;10.18;6.32;;;12.90;93.50;;;;;;5114088;28;20509;-76
2021/08/24 03:48:21;;;;;;;10.82;6.45;;;12.80;93.50;;;;;;5112674;28;20105;-76
2021/08/24 03:50:47;;;;;;;9.43;6.47;;;12.80;93.60;;;;;;5112717;28;20043;-77
2021/08/24 03:53:13;;;;;;;6.95;5.93;;;12.70;93.60;;;;;;5075129;28;20028;-77
2021/08/24 03:55:39;;;;;;;7.85;7.00;;;12.70;93.70;;;;;;5075251;28;20543;-76
2021/08/24 03:58:04;;;;;;;7.53;6.43;;;12.70;93.80;;;;;;5092764;28;20032;-76
2021/08/24 04:00:30;;;;;;;11.02;6.47;;;12.70;93.80;;;;;;5074288;28;20487;-78
2021/08/24 04:02:55;;;;;;;6.35;5.65;;;12.70;93.80;;;;;;5091012;28;20452;-83
2021/08/24 04:05:21;;;;;;;9.95;6.35;;;12.70;93.80;;;;;;5074002;28;20388;-77
2021/08/24 04:07:47;;;;;;;9.20;6.97;;;12.70;93.80;;;;;;5091972;28;20089;-77
2021/08/24 04:10:13;;;;;;;8.70;7.10;;;12.70;93.80;;;;;;5091230;28;20038;-78
2021/08/24 04:12:39;;;;;;;10.25;6.75;;;12.60;93.90;;;;;;5094824;28;20048;-76
2021/08/24 04:15:09;;;;;;;8.48;6.85;;;12.60;93.90;;;;;;5112279;28;20032;-77
2021/08/24 04:17:35;;;;;;;8.93;6.30;;;12.60;94.10;;;;;;5112193;28;20015;-76
2021/08/24 04:20:04;;;;;;;9.02;6.60;;;12.60;93.90;;;;;;5111546;28;20028;-77
2021/08/24 04:22:29;;;;;;;9.27;7.13;;;12.60;93.90;;;;;;5111788;28;20348;-77
2021/08/24 04:24:55;;;;;;;7.80;6.78;;;12.60;94.00;;;;;;5112369;28;20035;-76
2021/08/24 04:27:21;;;;;;;9.27;8.30;;;12.60;94.00;;;;;;5113068;28;20028;-77
2021/08/24 04:29:47;;;;;;;9.65;8.07;;;12.60;94.00;;;;;;5113179;28;20106;-76
2021/08/24 04:32:17;;;;;;;8.68;7.78;;;12.60;94.00;;;;;;5115868;28;20063;-76
2021/08/24 04:34:43;;;;;;;9.68;8.63;;;12.60;94.00;;;;;;5116023;28;20055;-76
2021/08/24 04:37:08;;;;;;;10.32;9.20;;;12.70;94.00;;;;;;5115484;28;20429;-75
2021/08/24 04:39:34;;;;;;;12.70;9.52;;;12.60;94.00;;;;;;5098368;28;20880;-76
2021/08/24 04:42:00;;;;;;;8.73;7.83;;;12.60;94.00;;;;;;5098253;28;20031;-76
2021/08/24 04:44:25;;;;;;;9.80;7.97;;;12.60;94.00;;;;;;5115365;28;20028;-77
2021/08/24 04:46:51;;;;;;;9.73;7.45;;;12.60;94.00;;;;;;5116021;28;20650;-77
2021/08/24 04:49:18;;;;;;;10.30;7.47;;;12.60;94.00;;;;;;5097957;28;20395;-77
2021/08/24 04:51:44;;;;;;;7.55;6.68;;;12.60;94.00;;;;;;5098651;28;20089;-78
2021/08/24 04:54:10;;;;;;;11.65;7.00;;;12.70;94.00;;;;;;5081207;28;20031;-78
2021/08/24 04:56:35;;;;;;;8.93;7.18;;;13.00;94.00;;;;;;5098493;28;20024;-78
2021/08/24 04:59:01;;;;;;;8.52;7.70;;;13.40;93.80;;;;;;5115554;28;20026;-76
2021/08/24 05:01:27;;;;;;;11.43;7.63;;;13.70;93.60;;;;;;5114975;28;20028;-77
2021/08/24 05:03:53;;;;;;;7.57;6.28;;;14.00;93.00;;;;;;5081289;28;20084;-77
2021/08/24 05:06:18;;;;;;;9.43;7.25;;;14.30;92.50;;;;;;5097931;28;20031;-77
2021/08/24 05:08:44;;;;;;;6.65;5.50;;;14.50;91.70;;;;;;5115372;28;20016;-77
2021/08/24 05:11:10;;;;;;;9.18;5.57;;;14.70;91.30;;;;;;5097561;28;20410;-78
2021/08/24 05:13:35;;;;;;;7.10;4.78;;;15.00;90.50;;;;;;5098217;28;20059;-76
2021/08/24 05:16:06;;;;;;;7.72;4.47;;;15.20;90.20;;;;;;5081352;28;20034;-76
2021/08/24 05:18:32;;;;;;;7.63;4.50;;;15.50;88.90;;;;;;5115164;28;20059;-75
2021/08/24 05:21:07;;;;;;;6.90;4.25;;;15.70;87.50;;;;;;5115040;28;20055;-76
2021/08/24 05:23:33;;;;;;;6.43;3.67;;;16.10;86.30;;;;;;5114523;28;20093;-77
2021/08/24 05:25:59;;;;;;;6.28;3.92;;;16.40;85.00;;;;;;5114843;28;20023;-77
2021/08/24 05:28:25;;;;;;;6.50;3.65;;;16.70;83.70;;;;;;5114827;28;20084;-76
2021/08/24 05:30:51;;;;;;;4.63;3.35;;;16.80;82.60;;;;;;5098007;28;20028;-77
2021/08/24 05:33:17;;;;;;;5.80;3.50;;;17.00;81.90;;;;;;5097439;28;20031;-80
2021/08/24 05:35:42;;;;;;;5.53;4.05;;;17.20;81.10;;;;;;5114620;28;20028;-77
2021/08/24 05:38:08;;;;;;;7.25;3.85;;;17.60;80.20;;;;;;5081162;28;20020;-76
2021/08/24 05:40:34;;;;;;;5.40;4.32;;;17.80;78.90;;;;;;5114319;28;20031;-77
2021/08/24 05:43:00;;;;;;;6.93;4.78;;;17.80;77.90;;;;;;5093755;28;20135;-76
2021/08/24 05:45:25;;;;;;;12.82;5.63;;;17.90;78.00;;;;;;5094241;28;20028;-77
2021/08/24 05:47:51;;;;;;;8.50;4.90;;;18.10;77.80;;;;;;5106874;28;20119;-75
2021/08/24 05:50:16;;;;;;;10.68;5.28;;;18.30;76.90;;;;;;5097065;28;20030;-76
2021/08/24 05:52:42;;;;;;;5.82;3.90;;;18.50;76.00;;;;;;5114154;28;20055;-77
2021/08/24 05:55:09;;;;;;;7.20;4.05;;;18.70;75.50;;;;;;5080444;28;20027;-76
2021/08/24 05:57:34;;;;;;;5.90;3.63;;;18.90;75.00;;;;;;5097477;28;20368;-75
2021/08/24 06:00:00;;;;;;;5.50;4.18;;;18.90;74.30;;;;;;5115085;28;20114;-77
2021/08/24 06:02:26;;;;;;;6.85;4.03;;;18.90;74.20;;;;;;5113832;28;20035;-78
2021/08/24 06:04:53;;;;;;;5.35;3.13;;;19.00;74.30;;;;;;5113650;28;20074;-77
2021/08/24 06:07:19;;;;;;;5.80;3.05;;;19.30;73.70;;;;;;5114853;28;20024;-78
2021/08/24 06:09:45;;;;;;;5.10;4.03;;;19.60;72.50;;;;;;5113872;28;20027;-76
2021/08/24 06:12:11;;;;;;;5.63;3.20;;;19.70;72.10;;;;;;5096223;28;20057;-77
2021/08/24 06:14:36;;;;;;;5.13;3.50;;;19.90;71.70;;;;;;5112467;28;20509;-76
2021/08/24 06:17:02;;;;;;;5.13;3.75;;;19.90;71.50;;;;;;5096318;28;20036;-77
2021/08/24 06:19:29;;;;;;;6.78;3.15;;;19.90;71.30;;;;;;5096353;28;20466;-77
2021/08/24 06:21:58;;;;;;;5.43;2.83;;;20.10;71.30;;;;;;5113284;28;20035;-77
2021/08/24 06:24:24;;;;;;;6.95;3.20;;;20.70;70.60;;;;;;5109772;28;20413;-77
2021/08/24 06:26:50;;;;;;;4.80;3.50;;;21.30;69.40;;;;;;5096270;28;20042;-77
2021/08/24 06:29:16;;;;;;;5.20;3.10;;;21.80;67.80;;;;;;5095947;28;20024;-76
2021/08/24 06:31:45;;;;;;;6.75;3.35;;;21.80;66.50;;;;;;5113621;28;20042;-78
2021/08/24 06:34:12;;;;;;;4.43;3.03;;;21.70;66.70;;;;;;5112889;28;20162;-76
2021/08/24 06:36:39;;;;;;;4.70;3.50;;;21.50;65.90;;;;;;5112714;28;20019;-78
2021/08/24 06:39:06;;;;;;;4.47;3.38;;;21.30;66.60;;;;;;5112877;28;20034;-77
2021/08/24 06:41:32;;;;;;;5.97;3.55;;;21.40;66.80;;;;;;5112462;28;20036;-77
2021/08/24 06:43:58;;;;;;;4.88;3.17;;;21.10;67.50;;;;;;5113274;28;20030;-78
2021/08/24 06:46:23;;;;;;;4.50;3.25;;;21.00;66.90;;;;;;5113106;28;20384;-77
2021/08/24 06:48:49;;;;;;;4.93;3.67;;;21.20;68.10;;;;;;5113824;28;20020;-77
2021/08/24 06:51:15;;;;;;;5.05;3.05;;;21.40;67.60;;;;;;5113189;28;20028;-76
2021/08/24 06:53:41;;;;;;;6.57;3.47;;;22.10;66.40;;;;;;5113422;28;20036;-77
2021/08/24 06:56:11;;;;;;;5.35;3.47;;;22.20;65.60;;;;;;5115110;28;20027;-76
2021/08/24 06:58:38;;;;;;;3.80;3.40;;;22.60;65.20;;;;;;5114119;28;20035;-77
2021/08/24 07:01:04;;;;;;;5.78;3.40;;;22.90;64.70;;;;;;5113360;28;20051;-77
2021/08/24 07:03:29;;;;;;;4.95;3.10;;;23.00;62.90;;;;;;5095573;28;20146;-77
2021/08/24 07:05:55;;;;;;;8.50;2.88;;;22.70;63.30;;;;;;5083013;28;20028;-78
2021/08/24 07:08:21;;;;;;;4.10;3.00;;;22.80;63.70;;;;;;5093688;28;20028;-77
2021/08/24 07:10:48;;;;;;;4.97;3.13;;;23.20;63.20;;;;;;5094069;28;20049;-78
2021/08/24 07:13:17;;;;;;;5.93;3.38;;;23.30;62.60;;;;;;5112512;28;20051;-77
2021/08/24 07:15:43;;;;;;;7.28;3.10;;;23.20;62.70;;;;;;5110089;28;20019;-77
2021/08/24 07:18:09;;;;;;;5.22;3.10;;;23.00;62.00;;;;;;5113044;28;20030;-78
2021/08/24 07:20:35;;;;;;;7.30;3.50;;;22.60;63.00;;;;;;5111579;28;20467;-76
2021/08/24 07:23:02;;;;;;;5.55;3.20;;;22.70;63.40;;;;;;5111562;28;20387;-78
2021/08/24 07:25:30;;;;;;;5.38;3.63;;;23.10;63.20;;;;;;5110932;28;20125;-82
2021/08/24 07:27:57;;;;;;;7.40;3.30;;;23.60;62.90;;;;;;5103373;28;20020;-77
2021/08/24 07:30:24;;;;;;;4.22;2.92;;;24.20;61.60;;;;;;5101100;28;20024;-76
2021/08/24 07:32:49;;;;;;;4.57;3.70;;;24.30;60.50;;;;;;5066946;28;20558;-77
2021/08/24 07:35:17;;;;;;;7.15;2.78;;;24.40;60.90;;;;;;5112570;28;20035;-76
2021/08/24 07:37:43;;;;;;;5.32;3.50;;;24.70;59.10;;;;;;5112977;28;20112;-77
2021/08/24 07:40:10;;;;;;;4.57;3.42;;;24.30;60.10;;;;;;5111678;27;20619;-78
2021/08/24 07:42:37;;;;;;;3.50;3.20;;;24.10;60.00;;;;;;5102037;28;20418;-77
2021/08/24 07:45:03;;;;;;;5.80;3.28;;;23.70;60.30;;;;;;5092602;28;20040;-77
2021/08/24 07:47:29;;;;;;;4.85;3.22;;;23.70;61.40;;;;;;5102384;28;20024;-83
2021/08/24 07:49:55;;;;;;;3.90;3.40;;;24.10;60.30;;;;;;5108761;28;20517;-76
2021/08/24 07:52:21;;;;;;;5.10;3.20;;;24.00;60.80;;;;;;5075710;28;20151;-78
2021/08/24 07:54:47;;;;;;;4.82;3.45;;;23.80;60.90;;;;;;5092344;28;20081;-76
2021/08/24 07:57:12;;;;;;;5.15;3.50;;;24.30;60.60;;;;;;5107655;28;20081;-77
2021/08/24 07:59:38;;;;;;;5.03;3.60;;;25.00;60.40;;;;;;5090827;28;20460;-81
2021/08/24 08:02:04;;;;;;;5.32;3.00;;;25.60;59.40;;;;;;5101494;28;20074;-77
2021/08/24 08:04:30;;;;;;;4.63;3.42;;;25.60;57.10;;;;;;5115863;28;20038;-76
2021/08/24 08:06:56;;;;;;;7.00;2.65;;;25.20;56.60;;;;;;5104025;28;20028;-77
2021/08/24 08:09:22;;;;;;;4.03;3.10;;;25.10;59.00;;;;;;5106853;28;20469;-77
2021/08/24 08:11:49;;;;;;;3.75;3.00;;;25.30;58.90;;;;;;5101134;28;20032;-76
2021/08/24 08:14:16;;;;;;;4.45;2.60;;;25.90;56.60;;;;;;5095830;28;20020;-77
2021/08/24 08:16:42;;;;;;;3.28;2.42;;;25.80;56.40;;;;;;5095745;28;20028;-77
2021/08/24 08:19:07;;;;;;;3.55;2.50;;;25.90;55.70;;;;;;5097215;28;20464;-77
2021/08/24 08:21:36;;;;;;;7.57;2.55;;;25.70;55.40;;;;;;5117227;28;20057;-78
2021/08/24 08:24:01;;;;;;;3.65;2.17;;;25.50;56.30;;;;;;5104780;28;20523;-78
2021/08/24 08:26:28;;;;;;;4.05;2.20;;;25.20;56.60;;;;;;5115291;28;20104;-77
2021/08/24 08:28:55;;;;;;;4.50;2.75;;;25.30;56.80;;;;;;5115413;28;20053;-77
2021/08/24 08:31:23;;;;;;;2.58;2.17;;;25.80;55.20;;;;;;5115526;28;20036;-77
2021/08/24 08:33:49;;;;;;;3.95;2.47;;;25.90;54.30;;;;;;5115769;27;20023;-77
2021/08/24 08:36:14;;;;;;;4.22;2.35;;;25.80;54.00;;;;;;5115418;28;20028;-76
2021/08/24 08:38:40;;;;;;;4.15;1.92;;;25.50;55.60;;;;;;5097484;28;20516;-81
2021/08/24 08:41:32;;;;;;;3.20;1.85;;;26.00;56.00;;;;;;5102029;28;20024;-76
2021/08/24 08:44:22;;;;;;;4.70;2.60;;;26.90;54.30;;;;;;5093545;28;20231;-77
2021/08/24 08:47:09;;;;;;;4.03;1.77;;;27.10;51.30;;;;;;5114231;28;20020;-76
2021/08/24 08:49:34;;;;;;;6.47;2.05;;;27.40;53.20;;;;;;5115629;28;20047;-76
2021/08/24 08:52:31;;;;;;;3.30;1.88;;;27.60;49.70;;;;;;5116014;28;20116;-76
2021/08/24 08:55:15;;;;;;;2.72;1.80;;;27.40;52.60;;;;;;5111430;28;20992;-76
2021/08/24 08:57:52;;;;;;;3.70;1.90;;;28.10;51.80;;;;;;5095149;28;20047;-80
2021/08/24 09:00:23;;;;;;;4.97;1.60;;;28.90;50.20;;;;;;5104288;28;20035;-76
2021/08/24 09:02:50;;;;;;;3.15;1.50;;;29.00;46.50;;;;;;5116332;28;20055;-75
2021/08/24 09:05:25;;;;;;;2.63;1.23;;;28.80;45.70;;;;;;5117957;28;20099;-77
2021/08/24 09:07:52;;;;;;;6.25;1.50;;;28.10;47.70;;;;;;5115801;28;20080;-77
2021/08/24 09:10:30;;;;;;;2.08;1.00;;;27.50;47.20;;;;;;5106344;28;20023;-75
2021/08/24 09:13:04;;;;;;;3.90;1.27;;;27.40;49.10;;;;;;5116318;28;20066;-76
2021/08/24 09:15:53;;;;;;;3.25;1.20;;;27.50;48.30;;;;;;5113704;28;20472;-76
2021/08/24 09:18:33;;;;;;;3.42;1.25;;;27.60;48.40;;;;;;5085316;27;20036;-77
2021/08/24 09:21:05;;;;;;;2.13;1.30;;;28.00;48.70;;;;;;5115275;28;20020;-76
2021/08/24 09:23:31;;;;;;;2.28;0.80;;;28.30;46.80;;;;;;5113257;28;20035;-76
2021/08/24 09:26:34;;;;;;;1.88;0.80;;;27.90;45.90;;;;;;5091208;28;20036;-75
2021/08/24 09:28:59;;;;;;;2.30;0.80;;;27.50;46.00;;;;;;5093391;28;20020;-76
2021/08/24 09:31:25;;;;;;;2.33;0.90;;;26.80;47.40;;;;;;5112409;28;20031;-76
2021/08/24 09:33:51;;;;;;;2.28;1.02;;;26.40;47.60;;;;;;5102173;28;20483;-77
2021/08/24 09:36:18;;;;;;;4.30;1.17;;;26.20;48.60;;;;;;5094597;28;20044;-76
2021/08/24 09:38:57;;;;;;;2.88;1.50;;;26.00;49.90;;;;;;5101422;28;20020;-75
2021/08/24 09:41:32;;;;;;;2.90;1.10;;;26.00;48.40;;;;;;5113329;28;20028;-76
2021/08/24 09:44:19;;;;;;;3.00;1.63;;;25.60;49.80;;;;;;5112978;28;20039;-77
2021/08/24 09:46:45;;;;;;;2.67;1.70;;;25.60;50.70;;;;;;5111920;28;20023;-77
2021/08/24 09:49:49;;;;;;;1.95;1.23;;;25.80;50.00;;;;;;5094363;28;20352;-76
2021/08/24 09:52:24;;;;;;;4.50;1.52;;;26.00;50.00;;;;;;5111604;28;20062;-76
2021/08/24 09:54:50;;;;;;;3.45;1.40;;;26.00;49.10;;;;;;5118249;28;20032;-81
2021/08/24 09:57:32;;;;;;;3.92;1.55;;;26.30;48.00;;;;;;5127804;28;20056;-75
2021/08/24 10:00:19;;;;;;;2.92;1.30;;;25.90;49.50;;;;;;5126867;28;20089;-76
2021/08/24 10:03:00;;;;;;;3.10;1.10;;;25.50;48.60;;;;;;5117576;28;20034;-84
2021/08/24 10:05:34;;;;;;;4.72;1.20;;;25.40;49.40;;;;;;5104046;28;20066;-77
2021/08/24 10:08:20;;;;;;;2.67;0.95;;;25.20;49.10;;;;;;5109611;28;20075;-75
2021/08/24 10:11:03;;;;;;;2.50;0.90;;;25.30;49.00;;;;;;5110479;28;20036;-76
2021/08/24 10:13:35;;;;;;;3.58;0.90;;;26.30;46.80;;;;;;5113839;28;20044;-77
2021/08/24 10:16:23;;;;;;;3.30;0.77;;;26.30;46.80;;;;;;5113561;28;20068;-76
2021/08/24 10:19:04;;;;;;;1.90;1.13;;;26.40;46.20;;;;;;5113533;28;20031;-76
2021/08/24 10:21:51;;;;;;;2.47;0.98;;;26.70;45.20;;;;;;5111940;28;20024;-77
2021/08/24 10:24:29;;;;;;;1.98;0.80;;;26.60;45.60;;;;;;5111060;27;20877;-76
2021/08/24 10:26:59;;;;;;;2.55;0.95;;;26.90;44.60;;;;;;5107576;28;20031;-79
2021/08/24 10:29:28;;;;;;;3.10;1.23;;;27.00;45.30;;;;;;5108693;28;20019;-77
2021/08/24 10:32:04;;;;;;;3.05;1.00;;;26.50;44.80;;;;;;5106478;28;20127;-78
2021/08/24 10:34:35;;;;;;;2.33;0.82;;;26.50;45.90;;;;;;5110703;28;20040;-75
2021/08/24 10:37:32;;;;;;;3.08;0.80;;;26.40;45.10;;;;;;5111683;28;20020;-77
2021/08/24 10:40:07;;;;;;;1.98;0.88;;;26.60;44.60;;;;;;5101156;28;20035;-78
2021/08/24 10:42:32;;;;;;;5.00;1.00;;;26.30;44.60;;;;;;5107131;28;20028;-74
2021/08/24 10:45:01;;;;;;;2.78;1.25;;;25.80;44.80;;;;;;5093448;28;20097;-77
2021/08/24 10:47:42;;;;;;;2.65;1.35;;;25.70;46.00;;;;;;5104418;28;20024;-76
2021/08/24 10:50:36;;;;;;;2.70;1.42;;;25.60;46.30;;;;;;5113326;28;20027;-76
2021/08/24 10:53:21;;;;;;;2.47;1.10;;;25.10;47.90;;;;;;5095416;28;20528;-75
2021/08/24 10:55:55;;;;;;;2.80;1.10;;;25.50;47.40;;;;;;5099508;28;20030;-77
2021/08/24 10:58:47;;;;;;;3.30;1.10;;;25.30;47.40;;;;;;5091943;28;20135;-75
2021/08/24 11:01:22;;;;;;;2.70;0.88;;;25.00;47.40;;;;;;5068956;28;20082;-75
2021/08/24 11:04:06;;;;;;;2.80;0.80;;;24.70;49.60;;;;;;5106045;28;20085;-77
2021/08/24 11:06:51;;;;;;;2.38;1.08;;;25.30;49.40;;;;;;5113223;28;20035;-76
2021/08/24 11:09:50;;;;;;;3.00;1.30;;;25.20;46.80;;;;;;5093912;28;20043;-76
2021/08/24 11:12:36;;;;;;;1.85;1.10;;;24.70;48.60;;;;;;5091325;28;20114;-76
2021/08/24 11:15:34;;;;;;;4.78;0.80;;;25.00;48.80;;;;;;5080040;28;20047;-78
2021/08/24 11:18:15;;;;;;;2.95;0.93;;;25.30;46.70;;;;;;5103426;28;20031;-77
2021/08/24 11:21:04;;;;;;;2.20;1.10;;;25.60;45.70;;;;;;5111488;28;20547;-76
2021/08/24 11:24:12;;;;;;;2.15;0.80;;;25.40;44.60;;;;;;5110177;28;20027;-78
2021/08/24 11:27:01;;;;;;;2.30;0.80;;;24.80;46.00;;;;;;5106966;28;20032;-77
2021/08/24 11:29:36;;;;;;;1.52;0.90;;;24.80;45.30;;;;;;5096557;28;20050;-76
2021/08/24 11:32:10;;;;;;;2.45;0.90;;;24.80;45.30;;;;;;5112852;28;20032;-76
2021/08/24 11:34:59;;;;;;;3.65;0.80;;;24.70;45.10;;;;;;5111487;28;20032;-76
2021/08/24 11:37:30;;;;;;;3.97;0.85;;;24.40;46.30;;;;;;5102485;28;20042;-78
2021/08/24 11:40:04;;;;;;;1.52;0.70;;;24.60;45.90;;;;;;5112379;28;20024;-76
2021/08/24 11:43:10;;;;;;;1.92;1.00;;;24.90;46.10;;;;;;5111983;28;20031;-77
2021/08/24 11:45:46;;;;;;;1.85;0.82;;;25.20;44.40;;;;;;5032920;28;20037;-77
2021/08/24 11:48:14;;;;;;;1.88;0.93;;;24.90;44.00;;;;;;5102657;28;20040;-77
2021/08/24 11:50:51;;;;;;;2.17;0.93;;;24.40;44.50;;;;;;5091129;28;20031;-80
2021/08/24 11:53:37;;;;;;;2.75;1.15;;;24.10;46.20;;;;;;5103904;28;20030;-76
2021/08/24 11:56:03;;;;;;;2.97;0.90;;;23.90;46.80;;;;;;5104067;28;20169;-76
2021/08/24 11:58:46;;;;;;;2.88;1.00;;;23.90;46.90;;;;;;5109326;28;20051;-76
2021/08/24 12:01:18;;;;;;;2.72;1.13;;;24.30;47.20;;;;;;5106631;28;20031;-78
2021/08/24 12:03:51;;;;;;;3.03;1.20;;;24.60;46.90;;;;;;5101490;28;20040;-76
2021/08/24 12:06:25;;;;;;;2.78;1.00;;;24.60;44.60;;;;;;5090030;28;20032;-76
2021/08/24 12:08:56;;;;;;;4.43;1.00;;;24.50;47.10;;;;;;5092437;28;20076;-76
2021/08/24 12:11:38;;;;;;;4.25;1.20;;;24.50;47.60;;;;;;5110862;28;20383;-77
2021/08/24 12:14:25;;;;;;;2.03;0.80;;;24.60;46.00;;;;;;5111656;28;20094;-77
2021/08/24 12:17:01;;;;;;;2.22;0.90;;;24.40;46.50;;;;;;5090613;28;20364;-76
2021/08/24 12:19:27;;;;;;;5.07;1.50;;;24.60;46.30;;;;;;5102617;28;20020;-78
2021/08/24 12:22:18;;;;;;;3.85;1.10;;;24.40;46.70;;;;;;5076834;28;20032;-76
2021/08/24 12:24:53;;;;;;;3.05;1.13;;;24.10;47.30;;;;;;5106986;28;20139;-77
2021/08/24 12:27:19;;;;;;;2.33;0.80;;;24.40;47.10;;;;;;5110320;28;20383;-76
2021/08/24 12:29:45;;;;;;;2.20;1.10;;;24.30;45.50;;;;;;5106575;28;20021;-77
2021/08/24 12:32:19;;;;;;;2.65;1.20;;;24.10;46.00;;;;;;5090883;28;20067;-75
2021/08/24 12:35:05;;;;;;;2.88;1.42;;;23.90;46.50;;;;;;5105518;28;20428;-76
2021/08/24 12:37:31;;;;;;;1.90;1.20;;;24.00;47.90;;;;;;5110302;28;20012;-76
2021/08/24 12:40:06;;;;;;;2.53;1.10;;;24.20;46.30;;;;;;5110950;28;20039;-77
2021/08/24 12:42:38;;;;;;;3.97;1.02;;;24.20;46.50;;;;;;5106822;28;20063;-77
2021/08/24 12:45:04;;;;;;;2.60;1.10;;;24.50;47.40;;;;;;5108209;28;20530;-77
2021/08/24 12:47:41;;;;;;;6.55;1.90;;;24.50;45.20;;;;;;5109350;28;20103;-77
2021/08/24 12:50:06;;;;;;;2.53;1.00;;;24.30;46.50;;;;;;5096823;28;20450;-76
2021/08/24 12:52:38;;;;;;;3.13;1.00;;;24.30;46.70;;;;;;5105138;28;20107;-76
2021/08/24 12:55:31;;;;;;;2.75;1.17;;;24.30;47.10;;;;;;5114236;28;20028;-76
2021/08/24 12:58:12;;;;;;;3.65;1.30;;;24.20;46.20;;;;;;5102579;28;20032;-76
2021/08/24 13:00:41;;;;;;;2.10;1.10;;;24.20;45.60;;;;;;5110002;28;20585;-76
2021/08/24 13:03:22;;;;;;;3.50;1.30;;;24.30;45.70;;;;;;5111238;28;20067;-75
2021/08/24 13:06:09;;;;;;;3.78;1.02;;;24.30;45.40;;;;;;5112268;28;20032;-78
2021/08/24 13:08:34;;;;;;;3.13;1.20;;;24.20;46.50;;;;;;5112900;28;20020;-77
2021/08/24 13:11:30;;;;;;;4.03;1.45;;;24.30;45.60;;;;;;5108911;28;20813;-76